KHON/HON METAR and TAF weather

Enter ICAO airport designator
Station Type Date Time Source
KHON METAR 2019/12/06 08:55 UTC NOAA

KHON 060855Z AUTO 02006KT 10SM OVC019 M04/M08 A3038 RMK AO2 SLP305 T10391078 51014


Station Type Date Time Source
KHON Decoded METAR 2019/12/06 08:55 UTC NOAA

HURON REGIONAL AIRPORT, SD, United States (KHON) 44-23N 098-14W 390M
Dec 06, 2019 - 03:55 AM EST / 2019.12.06 0855 UTC
Wind: from the NNE (020 degrees) at 7 MPH (6 KT):0
Visibility: 10 mile(s):0
Sky conditions: overcast
Temperature: 25.0 F (-3.9 C)
Windchill: 17 F (-8 C):1
Dew Point: 18.0 F (-7.8 C)
Relative Humidity: 74%
Pressure (altimeter): 30.38 in. Hg (1028 hPa)
Pressure tendency: 0.04 inches (1.4 hPa) higher than three hours ago
ob: KHON 060855Z AUTO 02006KT 10SM OVC019 M04/M08 A3038 RMK AO2 SLP305 T10391078 51014
cycle: 9

Station Type Date Time Source
KHON TAF 2019/12/06 06:22 UTC NOAA

TAF KHON 060520Z 0606/0706 35017G25KT P6SM OVC015
FM060900 35007KT P6SM OVC015
FM061200 26003KT P6SM OVC015
FM061800 19011KT P6SM BKN015
FM062100 17011G16KT P6SM SCT025
FM070000 17009KT P6SM SKC

Example: see airport list